Time;durP1;ratioP1;P1;durP2;ratioP2;P2;SDS_P1;SDS_P2;PMS_P1;PMS_P2;Temp;Humidity;BMP_temperature;BMP_pressure;BME280_temperature;BME280_humidity;BME280_pressure;Samples;Min_cycle;Max_cycle;Signal;HPM_P1;HPM_P2
2022/10/19 00:01:15;;;;;;;17.95;11.25;;;13.30;99.90;;;;;;5034147;28;20056;-70
2022/10/19 00:03:44;;;;;;;15.00;9.55;;;13.30;99.90;;;;;;5049679;28;20485;-70
2022/10/19 00:06:25;;;;;;;14.95;9.15;;;13.30;99.90;;;;;;5025542;28;20333;-70
2022/10/19 00:09:07;;;;;;;17.88;9.77;;;13.20;99.90;;;;;;5029885;28;20046;-70
2022/10/19 00:11:38;;;;;;;13.40;8.43;;;13.20;99.90;;;;;;5032239;28;20388;-70
2022/10/19 00:14:06;;;;;;;11.15;7.15;;;13.10;99.90;;;;;;5022956;28;20045;-70
2022/10/19 00:16:36;;;;;;;11.88;8.02;;;13.00;99.90;;;;;;5030210;28;20496;-70
2022/10/19 00:19:08;;;;;;;10.57;7.65;;;12.90;99.90;;;;;;5000308;28;20137;-69
2022/10/19 00:21:36;;;;;;;10.38;7.38;;;12.80;99.90;;;;;;5016103;28;20482;-69
2022/10/19 00:24:04;;;;;;;12.93;8.05;;;12.70;99.90;;;;;;5030604;28;20052;-70
2022/10/19 00:26:32;;;;;;;12.95;7.43;;;12.70;99.90;;;;;;5030364;28;20499;-70
2022/10/19 00:28:59;;;;;;;9.88;7.20;;;12.60;99.90;;;;;;5015359;28;20040;-70
2022/10/19 00:31:27;;;;;;;10.27;7.03;;;12.60;99.90;;;;;;5030028;28;20500;-70
2022/10/19 00:33:56;;;;;;;9.63;6.95;;;12.50;99.90;;;;;;5015269;28;20045;-70
2022/10/19 00:36:29;;;;;;;8.70;6.45;;;12.50;99.90;;;;;;5042435;28;20091;-70
2022/10/19 00:38:58;;;;;;;10.00;7.28;;;12.40;99.90;;;;;;5046411;28;20040;-70
2022/10/19 00:41:28;;;;;;;10.93;7.43;;;12.40;99.90;;;;;;5043490;28;20041;-70
2022/10/19 00:44:00;;;;;;;10.43;7.00;;;12.40;99.90;;;;;;5027877;28;20049;-70
2022/10/19 00:46:31;;;;;;;10.75;7.60;;;12.40;99.90;;;;;;5018365;28;20499;-71
2022/10/19 00:49:07;;;;;;;9.70;6.72;;;12.30;99.90;;;;;;5027192;28;20052;-70
2022/10/19 00:51:40;;;;;;;8.63;6.38;;;12.30;99.90;;;;;;5043549;28;20075;-69
2022/10/19 00:54:09;;;;;;;10.13;6.47;;;12.30;99.90;;;;;;5022557;28;20168;-72
2022/10/19 00:56:40;;;;;;;8.05;5.80;;;12.20;99.90;;;;;;5023641;28;20131;-70
2022/10/19 00:59:08;;;;;;;11.18;6.43;;;12.20;99.90;;;;;;5029910;28;20049;-70
2022/10/19 01:01:36;;;;;;;9.48;6.45;;;12.20;99.90;;;;;;5009681;28;20056;-70
2022/10/19 01:04:04;;;;;;;9.10;6.13;;;12.20;99.90;;;;;;5009638;28;20563;-70
2022/10/19 01:06:32;;;;;;;8.90;6.15;;;12.20;99.90;;;;;;5026021;28;20049;-71
2022/10/19 01:08:59;;;;;;;10.57;5.82;;;12.20;99.90;;;;;;5031569;28;20049;-70
2022/10/19 01:11:47;;;;;;;9.77;6.75;;;12.30;99.90;;;;;;5019448;28;20038;-71
2022/10/19 01:14:23;;;;;;;8.77;5.80;;;12.30;99.90;;;;;;5019052;28;20037;-71
2022/10/19 01:17:12;;;;;;;9.00;6.30;;;12.40;99.90;;;;;;5026105;28;20033;-71
2022/10/19 01:19:54;;;;;;;7.72;5.53;;;12.40;99.90;;;;;;5027481;28;20496;-71
2022/10/19 01:22:59;;;;;;;11.15;5.80;;;12.40;99.90;;;;;;5025418;28;20042;-71
2022/10/19 01:26:01;;;;;;;13.32;7.15;;;12.40;99.90;;;;;;5017382;28;20041;-71
2022/10/19 01:28:46;;;;;;;9.50;6.72;;;12.40;99.90;;;;;;5017919;28;20604;-71
2022/10/19 01:31:26;;;;;;;9.50;6.82;;;12.40;99.90;;;;;;5029674;28;20046;-70
2022/10/19 01:34:08;;;;;;;11.30;7.68;;;12.50;99.90;;;;;;5036999;28;20058;-71
2022/10/19 01:37:09;;;;;;;18.40;9.45;;;12.50;99.90;;;;;;5039042;28;20415;-70
2022/10/19 01:40:00;;;;;;;18.90;8.07;;;12.50;99.90;;;;;;5027641;28;20045;-70
2022/10/19 01:42:41;;;;;;;19.08;9.15;;;12.40;99.90;;;;;;5042228;28;20494;-71
2022/10/19 01:45:11;;;;;;;21.13;9.57;;;12.50;99.90;;;;;;5034574;28;20046;-71
2022/10/19 01:47:48;;;;;;;26.33;10.60;;;12.50;99.90;;;;;;5043473;28;20285;-70
2022/10/19 01:50:22;;;;;;;22.58;8.77;;;12.50;99.90;;;;;;5029828;28;20079;-69
2022/10/19 01:52:50;;;;;;;23.67;10.27;;;12.50;99.90;;;;;;5012880;28;20045;-70
2022/10/19 01:55:18;;;;;;;20.00;10.02;;;12.50;99.90;;;;;;5013332;28;20049;-70
2022/10/19 01:57:52;;;;;;;36.65;12.15;;;12.50;99.90;;;;;;5013108;28;20411;-70
2022/10/19 02:00:22;;;;;;;26.38;12.23;;;12.50;99.90;;;;;;5029633;28;20543;-70
2022/10/19 02:02:52;;;;;;;26.63;11.88;;;12.40;99.90;;;;;;5027811;28;20077;-70
2022/10/19 02:05:23;;;;;;;21.65;10.77;;;12.40;99.90;;;;;;5030572;28;20087;-70
2022/10/19 02:07:57;;;;;;;21.03;9.50;;;12.40;99.90;;;;;;5027912;28;20044;-70
2022/10/19 02:10:26;;;;;;;21.50;8.00;;;12.40;99.90;;;;;;5044057;28;20041;-70
2022/10/19 02:12:55;;;;;;;21.40;9.20;;;12.40;99.90;;;;;;5027756;28;20146;-70
2022/10/19 02:15:25;;;;;;;12.02;6.53;;;12.40;99.90;;;;;;5030601;28;20060;-70
2022/10/19 02:17:56;;;;;;;21.88;7.43;;;12.40;99.90;;;;;;5019155;28;20050;-69
2022/10/19 02:20:23;;;;;;;21.27;7.50;;;12.40;99.90;;;;;;5031976;28;20502;-70
2022/10/19 02:22:51;;;;;;;11.95;6.57;;;12.40;99.90;;;;;;5019010;28;20041;-70
2022/10/19 02:25:18;;;;;;;61.25;9.13;;;12.40;99.90;;;;;;5029050;28;20045;-70
2022/10/19 02:27:46;;;;;;;9.38;5.60;;;12.40;99.90;;;;;;5029013;28;20042;-70
2022/10/19 02:30:16;;;;;;;16.45;6.57;;;12.40;99.90;;;;;;5025615;28;20159;-70
2022/10/19 02:32:43;;;;;;;34.97;7.78;;;12.40;99.90;;;;;;5028832;28;20384;-69
2022/10/19 02:35:13;;;;;;;13.93;6.88;;;12.40;99.90;;;;;;5041211;28;20052;-69
2022/10/19 02:37:41;;;;;;;15.80;7.93;;;12.30;99.90;;;;;;5049263;28;20048;-70
2022/10/19 02:40:09;;;;;;;22.70;7.60;;;12.40;99.90;;;;;;5020699;28;20520;-71
2022/10/19 02:42:46;;;;;;;21.67;9.25;;;12.40;99.90;;;;;;5036973;28;20064;-70
2022/10/19 02:45:32;;;;;;;24.88;9.07;;;12.30;99.90;;;;;;5028757;28;20411;-70
2022/10/19 02:48:04;;;;;;;78.18;11.95;;;12.40;99.90;;;;;;5045718;28;20037;-70
2022/10/19 02:50:32;;;;;;;13.35;7.32;;;12.30;99.90;;;;;;5029463;28;20046;-72
2022/10/19 02:53:00;;;;;;;37.95;8.80;;;12.40;99.90;;;;;;5025884;28;20069;-70
2022/10/19 02:55:29;;;;;;;15.60;8.60;;;12.40;99.90;;;;;;5007369;28;20069;-70
2022/10/19 02:57:57;;;;;;;13.30;8.57;;;12.50;99.90;;;;;;5043143;28;20072;-69
2022/10/19 03:00:24;;;;;;;13.00;7.97;;;12.50;99.90;;;;;;5027904;28;20037;-70
2022/10/19 03:02:51;;;;;;;14.27;9.68;;;12.50;99.90;;;;;;5029960;28;20053;-70
2022/10/19 03:05:19;;;;;;;15.50;8.85;;;12.60;99.90;;;;;;5041779;28;20037;-70
2022/10/19 03:07:46;;;;;;;19.25;9.07;;;12.70;99.90;;;;;;5029685;28;20504;-70
2022/10/19 03:10:13;;;;;;;18.35;8.80;;;12.70;99.90;;;;;;5020939;28;20037;-70
2022/10/19 03:12:41;;;;;;;13.77;8.15;;;12.70;99.90;;;;;;5027819;28;20605;-70
2022/10/19 03:15:13;;;;;;;41.03;10.45;;;12.70;99.90;;;;;;5023894;28;20041;-70
2022/10/19 03:17:41;;;;;;;28.30;10.70;;;12.70;99.90;;;;;;5021661;28;20089;-70
2022/10/19 03:20:09;;;;;;;17.90;9.15;;;12.70;99.90;;;;;;5005774;28;20416;-70
2022/10/19 03:22:37;;;;;;;15.48;8.68;;;12.70;99.90;;;;;;5022420;28;20060;-70
2022/10/19 03:25:05;;;;;;;27.55;8.90;;;12.70;99.90;;;;;;5047732;28;20045;-70
2022/10/19 03:27:32;;;;;;;27.67;9.32;;;12.70;99.90;;;;;;5036170;28;20500;-71
2022/10/19 03:30:00;;;;;;;26.05;9.88;;;12.60;99.90;;;;;;5032491;28;20056;-70
2022/10/19 03:32:27;;;;;;;14.18;8.43;;;12.60;99.90;;;;;;5014923;28;20045;-71
2022/10/19 03:34:55;;;;;;;16.23;8.00;;;12.60;99.90;;;;;;5039305;28;20076;-70
2022/10/19 03:37:22;;;;;;;25.60;9.07;;;12.70;99.90;;;;;;5032323;28;20439;-70
2022/10/19 03:39:49;;;;;;;20.70;10.98;;;12.60;99.90;;;;;;5013273;28;20060;-71
2022/10/19 03:42:16;;;;;;;20.77;11.32;;;12.60;99.90;;;;;;5027253;28;20104;-70
2022/10/19 03:44:44;;;;;;;29.00;12.43;;;12.70;99.90;;;;;;5015696;28;20048;-70
2022/10/19 03:47:11;;;;;;;27.77;13.70;;;12.70;99.90;;;;;;5031524;28;20048;-70
2022/10/19 03:49:38;;;;;;;33.38;15.00;;;12.70;99.90;;;;;;5031403;28;20038;-70
2022/10/19 03:52:08;;;;;;;41.38;16.92;;;12.70;99.90;;;;;;5031788;28;20052;-69
2022/10/19 03:54:36;;;;;;;35.00;15.52;;;12.70;99.90;;;;;;5041212;28;20045;-70
2022/10/19 03:57:03;;;;;;;34.65;16.17;;;12.80;99.90;;;;;;5031416;28;20156;-70
2022/10/19 03:59:30;;;;;;;32.47;14.38;;;12.80;99.90;;;;;;5030385;28;20045;-69
2022/10/19 04:01:58;;;;;;;40.30;15.35;;;12.80;99.90;;;;;;5033175;28;20065;-70
2022/10/19 04:04:25;;;;;;;44.83;17.90;;;12.80;99.90;;;;;;5035549;28;20488;-70
2022/10/19 04:06:52;;;;;;;49.13;18.65;;;12.80;99.90;;;;;;5029034;28;20053;-69
2022/10/19 04:09:21;;;;;;;44.03;17.35;;;12.70;99.90;;;;;;5030203;28;20068;-69
2022/10/19 04:11:49;;;;;;;60.67;19.42;;;12.70;99.90;;;;;;5030672;28;20045;-69
2022/10/19 04:14:19;;;;;;;43.40;16.55;;;12.70;99.90;;;;;;5011659;28;20558;-70
2022/10/19 04:17:02;;;;;;;39.67;15.85;;;12.70;99.90;;;;;;5018916;28;20042;-70
2022/10/19 04:19:30;;;;;;;46.72;18.67;;;12.60;99.90;;;;;;5022675;28;20065;-70
2022/10/19 04:21:58;;;;;;;67.15;23.42;;;12.70;99.90;;;;;;5030526;28;20156;-70
2022/10/19 04:24:25;;;;;;;64.82;22.63;;;12.60;99.90;;;;;;5029693;28;20128;-70
2022/10/19 04:26:54;;;;;;;61.78;23.20;;;12.60;99.90;;;;;;5029123;28;20040;-70
2022/10/19 04:29:23;;;;;;;47.92;19.38;;;12.70;99.90;;;;;;5031896;28;20128;-70
2022/10/19 04:31:57;;;;;;;32.08;13.65;;;12.60;99.90;;;;;;5030275;28;20446;-69
2022/10/19 04:34:24;;;;;;;29.15;13.07;;;12.60;99.90;;;;;;5020993;28;20436;-69
2022/10/19 04:36:52;;;;;;;45.95;15.70;;;12.60;99.90;;;;;;5024453;28;20053;-70
2022/10/19 04:39:20;;;;;;;32.42;14.40;;;12.70;99.90;;;;;;5029888;28;20063;-70
2022/10/19 04:41:47;;;;;;;34.05;15.00;;;12.60;99.90;;;;;;5025184;28;20123;-71
2022/10/19 04:44:14;;;;;;;25.60;12.13;;;12.70;99.90;;;;;;5009229;28;20033;-70
2022/10/19 04:46:41;;;;;;;19.77;10.07;;;12.70;99.90;;;;;;5017825;28;20050;-70
2022/10/19 04:49:09;;;;;;;15.18;8.38;;;12.70;99.90;;;;;;5024093;28;20048;-70
2022/10/19 04:51:36;;;;;;;14.10;7.32;;;12.70;99.90;;;;;;5027361;28;20042;-70
2022/10/19 04:54:03;;;;;;;14.63;7.75;;;12.70;99.90;;;;;;5028160;28;20515;-70
2022/10/19 04:56:31;;;;;;;15.50;7.93;;;12.70;99.90;;;;;;5045887;28;20053;-70
2022/10/19 04:58:59;;;;;;;21.05;7.72;;;12.70;99.90;;;;;;5027077;28;20384;-70
2022/10/19 05:01:29;;;;;;;16.27;8.30;;;12.70;99.90;;;;;;5025963;28;20038;-71
2022/10/19 05:03:58;;;;;;;14.52;8.68;;;12.70;99.90;;;;;;5016278;28;20048;-72
2022/10/19 05:06:26;;;;;;;19.52;8.20;;;12.60;99.90;;;;;;5019852;28;20030;-72
2022/10/19 05:08:55;;;;;;;13.45;7.60;;;12.60;99.90;;;;;;5016703;28;20053;-72
2022/10/19 05:11:22;;;;;;;31.05;8.10;;;12.60;99.90;;;;;;5012758;28;20439;-69
2022/10/19 05:13:50;;;;;;;49.53;9.75;;;12.60;99.90;;;;;;5016356;28;20064;-68
2022/10/19 05:16:20;;;;;;;25.10;7.90;;;12.60;99.90;;;;;;5022728;28;20076;-70
2022/10/19 05:18:49;;;;;;;52.10;9.30;;;12.50;99.90;;;;;;5012222;28;20110;-69
2022/10/19 05:21:17;;;;;;;60.67;9.73;;;12.50;99.90;;;;;;5013239;28;20394;-69
2022/10/19 05:23:45;;;;;;;64.85;9.85;;;12.50;99.90;;;;;;5013087;28;20034;-69
2022/10/19 05:26:16;;;;;;;17.58;8.98;;;12.40;99.90;;;;;;5011728;28;20474;-70
2022/10/19 05:28:48;;;;;;;59.03;12.20;;;12.40;99.90;;;;;;5042092;28;20060;-69
2022/10/19 05:31:18;;;;;;;58.97;12.00;;;12.30;99.90;;;;;;5010264;28;20579;-69
2022/10/19 05:33:46;;;;;;;47.40;9.20;;;12.20;99.90;;;;;;5011837;28;20550;-69
2022/10/19 05:36:24;;;;;;;22.05;7.95;;;12.20;99.90;;;;;;5030679;28;20057;-69
2022/10/19 05:38:53;;;;;;;37.40;8.80;;;12.20;99.90;;;;;;5015253;28;20041;-70
2022/10/19 05:41:22;;;;;;;22.67;7.80;;;12.10;99.90;;;;;;5011323;28;20042;-69
2022/10/19 05:43:55;;;;;;;15.88;6.20;;;12.10;99.90;;;;;;5012104;28;20057;-69
2022/10/19 05:46:23;;;;;;;43.00;7.32;;;12.10;99.90;;;;;;5013201;28;20497;-69
2022/10/19 05:48:50;;;;;;;26.58;7.00;;;12.10;99.90;;;;;;5002730;28;20160;-69
2022/10/19 05:51:20;;;;;;;9.43;5.25;;;12.10;99.90;;;;;;5014349;28;20501;-68
2022/10/19 05:53:48;;;;;;;16.90;6.07;;;12.10;99.90;;;;;;5017742;28;20060;-69
2022/10/19 05:56:26;;;;;;;15.18;6.35;;;12.10;99.90;;;;;;5016830;28;20049;-69
2022/10/19 05:58:56;;;;;;;9.13;5.45;;;12.10;99.90;;;;;;5009892;28;20077;-70
2022/10/19 06:01:24;;;;;;;12.85;6.50;;;12.10;99.90;;;;;;5022726;28;20049;-68
2022/10/19 06:03:53;;;;;;;18.13;6.72;;;12.10;99.90;;;;;;5023330;28;20050;-69
2022/10/19 06:06:21;;;;;;;12.43;6.30;;;12.10;99.90;;;;;;5005487;28;20463;-68
2022/10/19 06:08:49;;;;;;;10.07;6.03;;;12.00;99.90;;;;;;5011896;28;20132;-71
2022/10/19 06:11:23;;;;;;;11.77;5.13;;;12.00;99.90;;;;;;5009465;28;20053;-69
2022/10/19 06:13:54;;;;;;;28.65;6.68;;;12.10;99.90;;;;;;5028398;28;20045;-68
2022/10/19 06:16:24;;;;;;;13.77;6.05;;;12.00;99.90;;;;;;5024839;28;20064;-68
2022/10/19 06:18:52;;;;;;;16.77;5.75;;;12.10;99.90;;;;;;5021571;28;20500;-68
2022/10/19 06:21:24;;;;;;;68.20;7.18;;;12.00;99.90;;;;;;5015417;28;20136;-69
2022/10/19 06:23:57;;;;;;;17.02;4.97;;;12.00;99.90;;;;;;5014211;28;20069;-70
2022/10/19 06:26:25;;;;;;;36.53;5.78;;;11.80;99.90;;;;;;5018055;28;20049;-70
2022/10/19 06:28:56;;;;;;;12.75;4.70;;;11.80;99.90;;;;;;5020122;28;20029;-70
2022/10/19 06:31:24;;;;;;;30.85;5.68;;;11.90;99.90;;;;;;5008294;28;20145;-70
2022/10/19 06:33:51;;;;;;;9.20;4.85;;;12.00;99.90;;;;;;5030499;28;20187;-69
2022/10/19 06:36:24;;;;;;;32.05;6.45;;;12.10;99.90;;;;;;5048564;28;20360;-69
2022/10/19 06:38:52;;;;;;;15.60;5.20;;;12.10;99.90;;;;;;5018864;28;20053;-69
2022/10/19 06:41:19;;;;;;;17.92;5.80;;;12.10;99.90;;;;;;5015640;28;20189;-68
2022/10/19 06:43:51;;;;;;;32.75;6.35;;;12.20;99.90;;;;;;5024970;28;20103;-69
2022/10/19 06:46:22;;;;;;;17.05;6.22;;;12.20;99.90;;;;;;5042570;28;20404;-69
2022/10/19 06:48:51;;;;;;;9.43;5.40;;;12.20;99.90;;;;;;5038475;28;20467;-69
2022/10/19 06:51:19;;;;;;;10.65;4.82;;;12.30;99.90;;;;;;5036563;28;20067;-69
2022/10/19 06:53:47;;;;;;;25.45;5.65;;;12.40;99.90;;;;;;5048172;28;20049;-69
2022/10/19 06:56:23;;;;;;;10.30;4.63;;;12.40;99.90;;;;;;5049407;28;20048;-68
2022/10/19 06:58:51;;;;;;;14.73;4.97;;;12.40;99.90;;;;;;5022045;28;20050;-69
2022/10/19 07:01:18;;;;;;;7.75;4.07;;;12.40;99.90;;;;;;5030298;28;20487;-70
2022/10/19 07:03:46;;;;;;;6.75;3.92;;;12.40;99.90;;;;;;5034976;28;20038;-69
2022/10/19 07:06:13;;;;;;;5.97;3.75;;;12.40;99.90;;;;;;5043080;28;20095;-68
2022/10/19 07:08:42;;;;;;;11.98;6.10;;;12.50;99.90;;;;;;5032917;28;20621;-69
2022/10/19 07:11:16;;;;;;;20.30;5.88;;;12.60;99.90;;;;;;5029489;28;20124;-69
2022/10/19 07:13:43;;;;;;;13.18;7.45;;;12.60;99.90;;;;;;5027562;28;20052;-69
2022/10/19 07:16:13;;;;;;;13.15;6.75;;;12.50;99.90;;;;;;5029117;28;20049;-69
2022/10/19 07:18:48;;;;;;;22.23;7.85;;;12.70;99.90;;;;;;5031597;28;20041;-69
2022/10/19 07:21:16;;;;;;;11.13;6.60;;;12.70;99.90;;;;;;5030790;28;20057;-69
2022/10/19 07:23:46;;;;;;;11.15;5.28;;;12.70;99.90;;;;;;5047637;28;20041;-69
2022/10/19 07:26:13;;;;;;;17.02;7.93;;;12.70;99.90;;;;;;5024087;28;20076;-69
2022/10/19 07:28:43;;;;;;;16.15;7.70;;;12.80;99.90;;;;;;5032123;28;20061;-69
2022/10/19 07:31:13;;;;;;;15.55;7.05;;;12.90;99.90;;;;;;5022673;28;20460;-69
2022/10/19 07:33:41;;;;;;;12.57;6.65;;;13.00;99.90;;;;;;5011709;28;20053;-70
2022/10/19 07:36:09;;;;;;;19.02;6.70;;;13.00;99.90;;;;;;5033655;28;20049;-70
2022/10/19 07:38:37;;;;;;;13.02;6.38;;;12.90;99.90;;;;;;5030001;28;20049;-69
2022/10/19 07:41:11;;;;;;;12.65;7.10;;;13.00;99.90;;;;;;5029186;28;20504;-69
2022/10/19 07:43:40;;;;;;;29.17;9.60;;;13.10;99.90;;;;;;5047742;28;20064;-68
2022/10/19 07:46:12;;;;;;;15.35;7.85;;;13.10;99.90;;;;;;5022400;28;20502;-69
2022/10/19 07:48:39;;;;;;;;;;;13.00;99.90;;;;;;5024400;28;20048;-69
2022/10/19 07:51:07;;;;;;;13.68;6.40;;;13.00;99.90;;;;;;5030648;28;19936;-69
2022/10/19 07:53:36;;;;;;;8.43;5.30;;;13.00;99.90;;;;;;5029786;28;20045;-68
2022/10/19 07:56:09;;;;;;;12.13;5.68;;;13.00;99.90;;;;;;5029012;28;20041;-68
2022/10/19 07:58:37;;;;;;;9.00;5.53;;;13.00;99.90;;;;;;5030860;28;20041;-68
2022/10/19 08:01:08;;;;;;;9.43;5.45;;;13.10;99.90;;;;;;5029003;28;20160;-69
2022/10/19 08:03:36;;;;;;;13.52;5.45;;;13.20;99.90;;;;;;5032279;28;20120;-68
2022/10/19 08:06:24;;;;;;;10.25;4.30;;;13.30;99.90;;;;;;5012195;28;21091;-69
2022/10/19 08:08:53;;;;;;;6.88;4.35;;;13.40;99.90;;;;;;5028622;28;20048;-68
2022/10/19 08:11:26;;;;;;;5.95;4.18;;;13.40;99.90;;;;;;5013516;28;20436;-69
2022/10/19 08:13:57;;;;;;;7.82;4.57;;;13.60;99.90;;;;;;5030521;28;20111;-69
2022/10/19 08:16:26;;;;;;;11.07;5.05;;;13.60;99.90;;;;;;5030103;28;20526;-69
2022/10/19 08:18:59;;;;;;;7.45;4.55;;;13.50;99.90;;;;;;5030683;28;20387;-69
2022/10/19 08:21:27;;;;;;;8.93;4.30;;;13.60;99.90;;;;;;5029282;28;20466;-69
2022/10/19 08:23:55;;;;;;;9.80;5.47;;;13.70;99.90;;;;;;5028545;28;20411;-68
2022/10/19 08:26:22;;;;;;;8.13;4.10;;;13.70;99.90;;;;;;5030872;28;20492;-69
2022/10/19 08:28:49;;;;;;;5.82;3.92;;;13.70;99.90;;;;;;5029944;28;20518;-68
2022/10/19 08:31:19;;;;;;;13.80;4.55;;;13.80;99.90;;;;;;5029279;28;20046;-68
2022/10/19 08:33:49;;;;;;;7.30;4.72;;;13.80;99.90;;;;;;5030606;28;20077;-69
2022/10/19 08:36:18;;;;;;;7.85;3.95;;;13.70;99.90;;;;;;5051285;28;20361;-68
2022/10/19 08:38:47;;;;;;;6.13;4.20;;;13.60;99.90;;;;;;5038525;28;20060;-68
2022/10/19 08:41:36;;;;;;;8.68;4.55;;;13.60;99.90;;;;;;5026759;28;20049;-68
2022/10/19 08:44:40;;;;;;;6.25;3.80;;;13.80;99.90;;;;;;5020603;28;20042;-70
2022/10/19 08:47:37;;;;;;;12.60;4.32;;;13.80;99.90;;;;;;5025255;28;20084;-70
2022/10/19 08:50:35;;;;;;;6.45;3.90;;;13.60;99.90;;;;;;5048454;28;20048;-71
2022/10/19 08:53:07;;;;;;;7.55;4.00;;;13.60;99.90;;;;;;5032524;28;20048;-69
2022/10/19 08:55:49;;;;;;;8.65;4.55;;;13.80;99.90;;;;;;5052135;28;20056;-69
2022/10/19 08:58:40;;;;;;;8.20;5.43;;;13.80;99.90;;;;;;5031801;28;20102;-68
2022/10/19 09:01:28;;;;;;;6.43;4.17;;;13.80;99.90;;;;;;5046571;28;20133;-68
2022/10/19 09:04:11;;;;;;;7.40;4.32;;;13.90;99.90;;;;;;5032492;28;20303;-68
2022/10/19 09:07:13;;;;;;;9.98;5.63;;;13.90;99.90;;;;;;5049133;28;20037;-68
2022/10/19 09:09:55;;;;;;;7.93;4.97;;;13.90;99.90;;;;;;5032378;28;20040;-68
2022/10/19 09:12:36;;;;;;;12.43;5.20;;;14.00;99.90;;;;;;5049492;28;20045;-68
2022/10/19 09:15:14;;;;;;;10.13;4.75;;;13.90;99.90;;;;;;5047875;28;20056;-68
2022/10/19 09:17:42;;;;;;;8.25;4.40;;;13.80;99.90;;;;;;5031453;28;20182;-69
2022/10/19 09:20:16;;;;;;;9.95;4.85;;;13.90;99.90;;;;;;5045057;28;20095;-69
2022/10/19 09:22:43;;;;;;;10.32;5.30;;;13.90;99.90;;;;;;5042881;28;20053;-69
2022/10/19 09:25:19;;;;;;;11.77;6.32;;;14.00;99.90;;;;;;5033406;28;20108;-68
2022/10/19 09:28:24;;;;;;;10.73;6.43;;;14.10;99.90;;;;;;5004820;28;20129;-68
2022/10/19 09:31:00;;;;;;;11.13;6.53;;;14.10;99.90;;;;;;5021161;28;20415;-69
2022/10/19 09:33:34;;;;;;;10.90;6.63;;;14.20;99.90;;;;;;5027792;28;20029;-69
2022/10/19 09:36:04;;;;;;;11.27;6.20;;;14.20;99.90;;;;;;5023060;28;20041;-69
2022/10/19 09:38:31;;;;;;;13.55;7.50;;;14.30;99.90;;;;;;5008711;28;20053;-69
2022/10/19 09:41:14;;;;;;;11.13;7.32;;;14.30;99.90;;;;;;5029618;28;20033;-70
2022/10/19 09:43:52;;;;;;;12.48;6.55;;;14.40;99.90;;;;;;5031004;28;20041;-69
2022/10/19 09:46:44;;;;;;;13.13;7.18;;;14.50;99.90;;;;;;5031098;28;20124;-69
2022/10/19 09:49:16;;;;;;;12.55;7.03;;;14.60;99.90;;;;;;5029894;28;20123;-68
2022/10/19 09:51:50;;;;;;;10.82;6.65;;;14.60;99.90;;;;;;5008658;28;20042;-68
2022/10/19 09:54:36;;;;;;;13.13;7.38;;;14.80;99.90;;;;;;5027685;28;20049;-68
2022/10/19 09:57:04;;;;;;;12.63;7.57;;;14.80;99.90;;;;;;5028292;28;20079;-69
2022/10/19 09:59:35;;;;;;;11.35;7.47;;;14.80;99.90;;;;;;5028932;28;20069;-69
2022/10/19 10:02:16;;;;;;;11.45;7.78;;;15.00;99.90;;;;;;5031766;28;20053;-68
2022/10/19 10:05:04;;;;;;;11.07;6.82;;;15.00;99.90;;;;;;5028025;28;20040;-69
2022/10/19 10:07:37;;;;;;;11.48;7.03;;;15.10;99.90;;;;;;5027658;28;20120;-69
2022/10/19 10:10:28;;;;;;;10.65;7.07;;;15.10;99.90;;;;;;5029117;28;20491;-69
2022/10/19 10:12:58;;;;;;;13.73;8.27;;;15.30;99.90;;;;;;5018430;28;20037;-69
2022/10/19 10:15:29;;;;;;;12.45;7.78;;;15.50;99.90;;;;;;5027454;28;20076;-69
2022/10/19 10:17:57;;;;;;;12.93;8.07;;;15.50;99.90;;;;;;5028801;28;20061;-69
2022/10/19 10:20:31;;;;;;;11.40;7.78;;;15.70;99.90;;;;;;5029206;28;20530;-68
2022/10/19 10:23:01;;;;;;;15.88;8.45;;;15.70;99.90;;;;;;5028505;28;20037;-70
2022/10/19 10:25:32;;;;;;;14.43;8.07;;;15.80;99.90;;;;;;5042281;28;20179;-70
2022/10/19 10:28:02;;;;;;;11.20;7.72;;;15.70;99.90;;;;;;5024617;28;20385;-69
2022/10/19 10:30:35;;;;;;;14.05;8.63;;;15.80;99.90;;;;;;5028059;28;20403;-69
2022/10/19 10:33:03;;;;;;;13.00;8.50;;;15.80;99.90;;;;;;5029091;28;20072;-69
2022/10/19 10:35:54;;;;;;;13.75;7.85;;;15.90;99.90;;;;;;5028836;28;20045;-69
2022/10/19 10:38:47;;;;;;;13.32;8.52;;;15.80;99.90;;;;;;5028844;28;20048;-69
2022/10/19 10:41:21;;;;;;;14.00;8.98;;;15.90;99.90;;;;;;5026881;28;20061;-70
2022/10/19 10:43:57;;;;;;;14.45;9.18;;;15.90;99.90;;;;;;5036008;28;20062;-70
2022/10/19 10:46:45;;;;;;;13.50;8.95;;;15.90;99.90;;;;;;5021203;28;20025;-70
2022/10/19 10:49:43;;;;;;;13.15;8.85;;;15.80;99.90;;;;;;5022919;28;20042;-69
2022/10/19 10:52:17;;;;;;;16.25;9.80;;;15.70;99.90;;;;;;5015435;28;20449;-69
2022/10/19 10:55:15;;;;;;;15.18;9.63;;;15.70;99.90;;;;;;5011062;28;20046;-69
2022/10/19 10:57:48;;;;;;;13.73;9.40;;;15.70;99.90;;;;;;5012029;28;20137;-70
2022/10/19 11:00:19;;;;;;;13.60;9.38;;;15.80;99.90;;;;;;5028391;28;20068;-69
2022/10/19 11:03:23;;;;;;;12.90;9.20;;;15.90;99.90;;;;;;5027333;28;20072;-70
2022/10/19 11:05:56;;;;;;;15.98;9.43;;;15.90;99.90;;;;;;5023048;28;20523;-71
2022/10/19 11:08:30;;;;;;;14.60;10.18;;;16.00;99.90;;;;;;5029434;28;20077;-68
2022/10/19 11:11:15;;;;;;;18.65;10.68;;;16.20;99.90;;;;;;5029391;28;20166;-69
2022/10/19 11:14:14;;;;;;;16.67;10.43;;;16.20;99.90;;;;;;5018645;28;20119;-68
2022/10/19 11:16:46;;;;;;;15.75;9.93;;;16.10;99.90;;;;;;5026566;28;20123;-68
2022/10/19 11:19:22;;;;;;;17.33;10.85;;;16.20;99.90;;;;;;5023911;28;20048;-69
2022/10/19 11:22:28;;;;;;;18.55;10.02;;;16.40;99.90;;;;;;5018096;28;20516;-69
2022/10/19 11:25:38;;;;;;;14.95;10.25;;;16.50;99.90;;;;;;5056593;28;20099;-69
2022/10/19 11:28:35;;;;;;;14.10;9.65;;;16.60;99.90;;;;;;5008351;28;20504;-69
2022/10/19 11:31:19;;;;;;;14.52;9.15;;;16.80;99.90;;;;;;5004057;28;20554;-70
2022/10/19 11:33:52;;;;;;;14.40;9.93;;;17.10;99.90;;;;;;5015927;28;20056;-70
2022/10/19 11:36:49;;;;;;;14.25;9.63;;;17.40;99.90;;;;;;5009912;28;20058;-69
2022/10/19 11:39:37;;;;;;;13.60;9.10;;;17.50;99.90;;;;;;5008548;28;20049;-69
2022/10/19 11:42:21;;;;;;;13.30;9.85;;;17.60;99.90;;;;;;5017844;28;20597;-71
2022/10/19 11:45:25;;;;;;;11.90;8.63;;;17.70;99.90;;;;;;5009139;28;20041;-70
2022/10/19 11:48:25;;;;;;;11.75;8.80;;;18.20;99.90;;;;;;5008356;28;20551;-70
2022/10/19 11:50:59;;;;;;;11.57;8.98;;;18.60;99.90;;;;;;5002384;28;20509;-70
2022/10/19 11:53:49;;;;;;;11.68;8.85;;;18.80;99.90;;;;;;4981202;28;20037;-70
2022/10/19 11:56:29;;;;;;;11.60;9.25;;;19.20;99.90;;;;;;4990232;28;20053;-69
2022/10/19 11:59:26;;;;;;;14.10;8.77;;;19.30;99.90;;;;;;4989948;28;20046;-70
2022/10/19 12:02:30;;;;;;;13.98;9.05;;;19.40;99.90;;;;;;4987174;28;20133;-70
2022/10/19 12:05:26;;;;;;;17.70;9.52;;;19.50;99.90;;;;;;5010891;28;20069;-70
2022/10/19 12:08:24;;;;;;;14.68;9.30;;;19.90;99.90;;;;;;5027612;28;20088;-70
2022/10/19 12:11:07;;;;;;;13.10;9.25;;;21.30;99.90;;;;;;5025096;28;20042;-69
2022/10/19 12:13:50;;;;;;;12.07;8.77;;;22.50;99.90;;;;;;5030589;28;20056;-69
2022/10/19 12:16:20;;;;;;;10.57;8.23;;;23.30;99.90;;;;;;5031505;28;20052;-69
2022/10/19 12:18:52;;;;;;;12.57;8.75;;;23.60;99.90;;;;;;5032956;28;20053;-69
2022/10/19 12:21:19;;;;;;;;;;;23.40;99.90;;;;;;5030416;28;20045;-70
2022/10/19 12:23:48;;;;;;;10.10;8.55;;;23.20;99.90;;;;;;5031276;28;19955;-70
2022/10/19 12:26:18;;;;;;;10.95;9.07;;;23.10;99.90;;;;;;5029768;28;20037;-70
2022/10/19 12:28:53;;;;;;;18.83;10.40;;;22.70;99.90;;;;;;5031493;28;20504;-68
2022/10/19 12:31:23;;;;;;;19.25;10.98;;;22.30;99.90;;;;;;5009280;28;20555;-70
2022/10/19 12:33:59;;;;;;;13.90;9.20;;;22.30;99.90;;;;;;5014329;28;20460;-70
2022/10/19 12:36:41;;;;;;;10.80;9.15;;;22.00;99.90;;;;;;5019430;28;20044;-69
2022/10/19 12:39:24;;;;;;;12.73;9.05;;;22.10;99.90;;;;;;5032205;28;20045;-69
2022/10/19 12:42:11;;;;;;;10.65;9.35;;;23.30;99.90;;;;;;5029764;28;20095;-70
2022/10/19 12:45:17;;;;;;;10.20;8.40;;;24.60;99.90;;;;;;5030301;28;20038;-70
2022/10/19 12:48:06;;;;;;;9.45;8.38;;;26.20;99.90;;;;;;5029531;28;20045;-70
2022/10/19 12:50:56;;;;;;;9.43;8.60;;;29.00;99.90;;;;;;5032112;28;20038;-70
2022/10/19 12:53:26;;;;;;;10.15;9.23;;;30.80;99.90;;;;;;5032774;28;20057;-69
2022/10/19 12:56:01;;;;;;;;;;;31.40;99.90;;;;;;5028089;28;20484;-69
2022/10/19 12:58:47;;;;;;;9.73;8.82;;;32.00;99.10;;;;;;5031172;28;20395;-71
2022/10/19 13:01:25;;;;;;;10.57;9.27;;;32.80;96.10;;;;;;5025832;28;20056;-70
2022/10/19 13:04:15;;;;;;;12.40;9.13;;;34.20;93.10;;;;;;5031350;28;20056;-71
2022/10/19 13:06:48;;;;;;;10.30;9.35;;;35.40;88.10;;;;;;5030021;28;20044;-70
2022/10/19 13:09:41;;;;;;;9.70;8.70;;;35.10;85.10;;;;;;5028478;28;20060;-70
2022/10/19 13:12:14;;;;;;;8.88;8.07;;;36.30;81.30;;;;;;5002881;28;20133;-70
2022/10/19 13:15:03;;;;;;;;;;;36.20;80.30;;;;;;5028861;28;20049;-68